Time;durP1;ratioP1;P1;durP2;ratioP2;P2;SDS_P1;SDS_P2;PMS_P1;PMS_P2;Temp;Humidity;BMP_temperature;BMP_pressure;BME280_temperature;BME280_humidity;BME280_pressure;Samples;Min_cycle;Max_cycle;Signal;HPM_P1;HPM_P2
2022/06/28 00:00:46;;;;;;;4.68;4.38;;;;;;;12.59;100.00;102012.84;5043964;28;20029;-57
2022/06/28 00:03:12;;;;;;;4.43;4.13;;;;;;;12.58;100.00;102011.09;5038168;28;20025;-57
2022/06/28 00:05:37;;;;;;;5.20;4.80;;;;;;;12.57;100.00;102011.94;5040972;28;20024;-56
2022/06/28 00:08:04;;;;;;;5.25;4.68;;;;;;;12.56;100.00;102017.03;5043442;28;20020;-58
2022/06/28 00:10:29;;;;;;;6.22;4.68;;;;;;;12.52;100.00;102010.81;5043917;28;20055;-59
2022/06/28 00:12:54;;;;;;;5.30;4.65;;;;;;;12.51;100.00;102013.34;5026478;28;20063;-56
2022/06/28 00:18:03;;;;;;;5.13;4.20;;;;;;;12.41;100.00;102001.69;5044002;28;20044;-59
2022/06/28 00:20:29;;;;;;;5.82;4.35;;;;;;;12.39;100.00;102013.72;5043225;28;20017;-57
2022/06/28 00:22:54;;;;;;;4.97;4.53;;;;;;;12.31;100.00;102001.28;5039518;28;20392;-58
2022/06/28 00:25:20;;;;;;;7.20;4.53;;;;;;;12.27;100.00;101998.50;5044025;28;20031;-57
2022/06/28 00:27:45;;;;;;;7.63;5.13;;;;;;;12.23;100.00;102008.75;5039223;28;20043;-57
2022/06/28 00:30:11;;;;;;;4.43;3.92;;;;;;;12.22;100.00;102011.28;5044999;28;20052;-59
2022/06/28 00:32:37;;;;;;;5.68;4.53;;;;;;;12.20;100.00;102023.31;5043262;28;21102;-58
2022/06/28 00:35:04;;;;;;;5.18;4.45;;;;;;;12.18;100.00;102015.44;5040846;28;20029;-57
2022/06/28 00:37:30;;;;;;;5.57;4.43;;;;;;;12.18;100.00;102022.38;5038822;28;20496;-57
2022/06/28 00:39:56;;;;;;;6.88;4.80;;;;;;;12.12;100.00;102020.38;5039223;28;20036;-58
2022/06/28 00:42:22;;;;;;;8.73;5.70;;;;;;;12.14;100.00;102023.94;5043575;28;20017;-58
2022/06/28 00:44:47;;;;;;;8.63;4.70;;;;;;;12.14;100.00;102018.75;5045756;28;20028;-58
2022/06/28 00:47:13;;;;;;;5.72;4.15;;;;;;;12.16;100.00;102027.47;5042446;28;20025;-58
2022/06/28 00:49:40;;;;;;;5.88;5.10;;;;;;;12.13;100.00;102027.34;5046147;28;20024;-58
2022/06/28 00:52:06;;;;;;;5.22;4.72;;;;;;;12.10;100.00;102024.63;5046116;28;20020;-58
2022/06/28 00:54:32;;;;;;;5.47;5.05;;;;;;;12.07;100.00;102029.66;5044043;28;20035;-58
2022/06/28 00:56:58;;;;;;;6.55;4.53;;;;;;;12.04;100.00;102029.50;5042387;28;20451;-58
2022/06/28 00:59:23;;;;;;;4.90;4.40;;;;;;;12.00;100.00;102021.56;5043857;28;20023;-58
2022/06/28 01:01:49;;;;;;;7.20;5.35;;;;;;;12.01;100.00;102028.56;5045595;28;20382;-58
2022/06/28 01:04:14;;;;;;;4.82;4.43;;;;;;;12.01;100.00;102023.38;5042489;28;20029;-57
2022/06/28 01:06:39;;;;;;;5.15;4.65;;;;;;;12.00;100.00;102025.88;5042166;28;20031;-57
2022/06/28 01:09:05;;;;;;;5.97;5.40;;;;;;;11.99;100.00;102019.81;5044306;28;20044;-57
2022/06/28 01:11:32;;;;;;;5.85;5.35;;;;;;;11.99;100.00;102025.00;5035511;28;20028;-59
2022/06/28 01:14:00;;;;;;;6.97;5.45;;;;;;;11.99;100.00;102025.00;5049055;28;20028;-57
2022/06/28 01:16:26;;;;;;;5.40;4.82;;;;;;;11.97;100.00;102024.03;5047135;28;20120;-57
2022/06/28 01:18:52;;;;;;;5.20;4.70;;;;;;;11.96;100.00;102026.56;5043635;28;20017;-58
2022/06/28 01:21:17;;;;;;;5.25;4.85;;;;;;;11.94;100.00;102031.69;5046838;28;20166;-56
2022/06/28 01:23:45;;;;;;;7.57;5.30;;;;;;;11.95;100.00;102033.47;5046675;28;20402;-57
2022/06/28 01:26:13;;;;;;;5.38;4.93;;;;;;;11.94;100.00;102031.69;5045309;28;20096;-57
2022/06/28 01:28:40;;;;;;;6.10;5.50;;;;;;;11.95;100.00;102037.75;5036364;28;20030;-58
2022/06/28 01:31:06;;;;;;;6.28;5.55;;;;;;;11.93;100.00;102037.69;5049611;28;20028;-58
2022/06/28 01:33:32;;;;;;;5.63;5.13;;;;;;;11.93;100.00;102032.50;5048597;28;20396;-57
2022/06/28 01:35:57;;;;;;;7.05;5.45;;;;;;;11.91;100.00;102036.72;5041908;28;20021;-57
2022/06/28 01:38:24;;;;;;;6.60;5.55;;;;;;;11.88;100.00;102039.19;5045477;28;20511;-58
2022/06/28 01:40:49;;;;;;;6.47;5.88;;;;;;;11.86;100.00;102048.63;5048062;28;20479;-58
2022/06/28 01:43:15;;;;;;;8.25;6.00;;;;;;;11.84;100.00;102042.47;5042031;28;20021;-57
2022/06/28 01:45:41;;;;;;;5.53;5.03;;;;;;;11.82;100.00;102052.78;5042243;28;20017;-57
2022/06/28 01:48:07;;;;;;;7.15;5.78;;;;;;;11.81;100.00;102050.13;5047828;28;20400;-58
2022/06/28 01:50:32;;;;;;;8.95;5.55;;;;;;;11.79;100.00;102046.56;5048671;28;20083;-59
2022/06/28 01:52:58;;;;;;;6.88;5.88;;;;;;;11.77;100.00;102049.09;5046961;28;20547;-58
2022/06/28 01:55:23;;;;;;;7.82;5.88;;;;;;;11.76;100.00;102052.50;5045682;28;20033;-57
2022/06/28 01:57:48;;;;;;;6.63;6.00;;;;;;;11.74;100.00;102048.94;5044782;28;20025;-57
2022/06/28 02:00:14;;;;;;;6.88;6.18;;;;;;;11.72;100.00;102056.69;5048165;28;20104;-58
2022/06/28 02:02:40;;;;;;;6.75;5.95;;;;;;;11.71;100.00;102056.59;5040130;28;20020;-58
2022/06/28 02:05:05;;;;;;;6.35;5.80;;;;;;;11.67;100.00;102060.75;5042383;28;20422;-57
2022/06/28 02:07:31;;;;;;;6.80;6.20;;;;;;;11.65;100.00;102060.69;5043603;28;20421;-57
2022/06/28 02:09:56;;;;;;;7.70;6.15;;;;;;;11.64;100.00;102052.81;5046145;28;20031;-58
2022/06/28 02:12:21;;;;;;;7.93;5.97;;;;;;;11.62;100.00;102051.88;5044314;28;20376;-58
2022/06/28 02:14:47;;;;;;;6.80;5.80;;;;;;;11.60;100.00;102053.50;5048034;28;20041;-58
2022/06/28 02:17:12;;;;;;;6.15;5.47;;;;;;;11.59;100.00;102059.50;5049015;28;20136;-58
2022/06/28 02:19:38;;;;;;;7.50;6.85;;;;;;;11.55;100.00;102065.38;5045172;28;20070;-57
2022/06/28 02:22:03;;;;;;;7.28;6.50;;;;;;;11.51;100.00;102062.63;5046080;28;20024;-58
2022/06/28 02:24:30;;;;;;;9.57;6.47;;;;;;;11.46;100.00;102066.69;5041321;28;20544;-58
2022/06/28 02:26:55;;;;;;;7.22;6.55;;;;;;;11.45;100.00;102077.91;5043259;28;20086;-58
2022/06/28 02:29:20;;;;;;;8.18;6.22;;;;;;;11.44;100.00;102075.25;5048499;28;20107;-58
2022/06/28 02:31:46;;;;;;;9.07;6.63;;;;;;;11.42;100.00;102075.19;5044613;28;20021;-56
2022/06/28 02:40:21;;;;;;;6.60;5.85;;;;;;;11.40;100.00;102084.59;5048092;28;20020;-57
2022/06/28 02:42:24;;;;;;;8.18;6.05;;;;;;;11.36;100.00;102088.75;5040930;28;20059;-57
2022/06/28 02:44:50;;;;;;;6.38;5.82;;;;;;;11.34;100.00;102089.47;5046744;28;20017;-57
2022/06/28 02:47:15;;;;;;;8.05;5.63;;;;;;;11.32;100.00;102096.28;5042835;28;20386;-57
2022/06/28 02:49:40;;;;;;;7.28;5.82;;;;;;;11.28;100.00;102096.13;5046560;28;20448;-58
2022/06/28 02:52:06;;;;;;;6.82;5.72;;;;;;;11.27;100.00;102096.97;5048187;28;20029;-58
2022/06/28 02:54:31;;;;;;;7.95;5.95;;;;;;;11.24;100.00;102111.50;5046360;28;20048;-58
2022/06/28 02:56:57;;;;;;;7.03;5.72;;;;;;;11.23;100.00;102112.28;5045341;28;20107;-57
2022/06/28 02:59:22;;;;;;;6.45;5.88;;;;;;;11.20;100.00;102109.53;5045430;28;20021;-56
2022/06/28 03:01:47;;;;;;;7.78;6.07;;;;;;;11.17;100.00;102110.31;5047465;28;20025;-59
2022/06/28 03:04:12;;;;;;;8.88;6.07;;;;;;;11.15;100.00;102106.75;5046779;28;20056;-58
2022/06/28 03:06:38;;;;;;;7.75;5.45;;;;;;;11.14;100.00;102112.72;5043881;28;20025;-58
2022/06/28 03:09:04;;;;;;;7.13;5.15;;;;;;;11.12;100.00;102119.53;5046461;28;20051;-59
2022/06/28 03:11:30;;;;;;;7.03;5.47;;;;;;;11.10;100.00;102119.47;5043326;28;20013;-58
2022/06/28 03:13:55;;;;;;;7.30;5.20;;;;;;;11.09;100.00;102119.38;5042933;28;20059;-58
2022/06/28 03:16:20;;;;;;;7.63;5.10;;;;;;;11.07;100.00;102121.00;5045374;28;20558;-57
2022/06/28 03:18:46;;;;;;;5.57;5.00;;;;;;;11.04;100.00;102126.94;5037644;28;20052;-56
2022/06/28 03:21:11;;;;;;;5.32;4.80;;;;;;;11.02;100.00;102121.69;5042307;28;20576;-57
2022/06/28 03:23:36;;;;;;;6.20;5.60;;;;;;;10.97;100.00;102125.75;5038632;28;20021;-57
2022/06/28 03:26:02;;;;;;;6.07;5.57;;;;;;;10.94;100.00;102125.56;5040194;28;20017;-57
2022/06/28 03:28:27;;;;;;;7.75;4.80;;;;;;;10.92;100.00;102129.78;5039034;28;20266;-58
2022/06/28 03:30:52;;;;;;;5.43;4.90;;;;;;;10.89;100.00;102137.41;5043595;28;20028;-58
2022/06/28 03:33:18;;;;;;;6.03;4.70;;;;;;;10.85;100.00;102127.72;5040167;28;20037;-58
2022/06/28 03:35:43;;;;;;;5.63;4.68;;;;;;;10.83;100.00;102126.75;5045483;28;20349;-58
2022/06/28 03:38:08;;;;;;;6.20;4.90;;;;;;;10.79;100.00;102130.88;5047633;28;20035;-59
2022/06/28 03:40:34;;;;;;;5.00;4.53;;;;;;;10.78;100.00;102135.16;5039828;28;20032;-57
2022/06/28 03:42:59;;;;;;;7.57;5.10;;;;;;;10.77;100.00;102137.69;5045892;28;20043;-58
2022/06/28 03:45:24;;;;;;;5.78;4.95;;;;;;;10.76;100.00;102143.66;5042556;28;20014;-56
2022/06/28 03:47:50;;;;;;;7.72;5.05;;;;;;;10.76;100.00;102146.25;5040845;28;20131;-58
2022/06/28 03:50:15;;;;;;;8.40;5.57;;;;;;;10.75;100.00;102147.97;5045377;28;20021;-57
2022/06/28 03:52:40;;;;;;;5.97;5.07;;;;;;;10.73;100.00;102141.81;5042556;28;20021;-58
2022/06/28 03:55:06;;;;;;;5.70;4.90;;;;;;;10.72;100.00;102141.75;5048068;28;20082;-58
2022/06/28 03:57:32;;;;;;;6.38;4.80;;;;;;;10.71;100.00;102143.44;5028406;28;20469;-57
2022/06/28 03:59:59;;;;;;;5.00;4.60;;;;;;;10.68;100.00;102139.00;5027961;28;20071;-57
2022/06/28 04:02:25;;;;;;;5.95;4.93;;;;;;;10.67;100.00;102142.38;5027911;28;20025;-58
2022/06/28 04:04:50;;;;;;;5.75;4.35;;;;;;;10.68;100.00;102140.69;5030221;28;20278;-56
2022/06/28 04:07:15;;;;;;;7.40;4.45;;;;;;;10.67;100.00;102147.56;5045488;28;20481;-58
2022/06/28 04:09:41;;;;;;;7.05;4.78;;;;;;;10.67;100.00;102138.88;5042280;28;20381;-57
2022/06/28 04:12:06;;;;;;;6.25;4.47;;;;;;;10.66;100.00;102138.03;5045343;28;20023;-57
2022/06/28 04:14:32;;;;;;;7.32;4.95;;;;;;;10.68;100.00;102145.88;5043726;28;20032;-58
2022/06/28 04:16:57;;;;;;;7.53;4.70;;;;;;;10.67;100.00;102142.38;5045848;28;20031;-58
2022/06/28 04:19:22;;;;;;;4.95;4.45;;;;;;;10.69;100.00;102147.63;5033464;28;20033;-59
2022/06/28 04:21:48;;;;;;;5.63;4.60;;;;;;;10.71;100.00;102146.03;5027828;28;20493;-57
2022/06/28 04:24:13;;;;;;;5.25;4.63;;;;;;;10.72;100.00;102150.38;5027954;28;20018;-59
2022/06/28 04:26:38;;;;;;;7.88;4.88;;;;;;;10.75;100.00;102147.06;5027155;28;20048;-58
2022/06/28 04:29:04;;;;;;;4.97;4.15;;;;;;;10.78;100.00;102144.63;5028108;28;20330;-58
2022/06/28 04:31:29;;;;;;;4.38;4.05;;;;;;;10.83;100.00;102144.91;5027715;28;20029;-57
2022/06/28 04:33:54;;;;;;;5.60;4.18;;;;;;;10.88;100.00;102156.41;5027356;28;20037;-58
2022/06/28 04:36:20;;;;;;;4.47;4.07;;;;;;;10.94;100.00;102154.09;5027190;28;20508;-57
2022/06/28 04:38:45;;;;;;;8.55;3.78;;;;;;;11.02;100.00;102157.09;5027805;28;20029;-57
2022/06/28 04:41:11;;;;;;;5.93;3.75;;;;;;;11.09;100.00;102150.50;5039102;28;20068;-58
2022/06/28 04:43:36;;;;;;;4.82;4.07;;;;;;;11.14;100.00;102143.84;5042368;28;20106;-57
2022/06/28 04:46:02;;;;;;;8.18;3.60;;;;;;;11.20;100.00;102149.38;5039029;28;20031;-58
2022/06/28 04:48:27;;;;;;;5.93;4.03;;;;;;;11.27;100.00;102156.66;5043215;28;20306;-59
2022/06/28 04:50:52;;;;;;;5.80;3.67;;;;;;;11.35;100.00;102148.34;5028766;28;20025;-58
2022/06/28 04:53:17;;;;;;;6.70;3.92;;;;;;;11.43;100.00;102152.22;5033948;28;20060;-58
2022/06/28 04:55:43;;;;;;;3.90;3.50;;;;;;;11.49;100.00;102160.31;5027079;28;20025;-59
2022/06/28 04:58:08;;;;;;;9.43;4.00;;;;;;;11.55;100.00;102156.25;5027123;28;20044;-58
2022/06/28 05:00:33;;;;;;;5.82;3.55;;;;;;;11.59;100.00;102159.03;5035832;28;20107;-58
2022/06/28 05:02:59;;;;;;;5.55;3.55;;;;;;;11.62;100.00;102158.31;5020992;28;20022;-57
2022/06/28 05:05:24;;;;;;;6.43;3.67;;;;;;;11.65;100.00;102158.47;5027118;28;20025;-57
2022/06/28 05:07:49;;;;;;;5.75;3.58;;;;;;;11.70;100.00;102156.06;5020585;28;20061;-58
2022/06/28 05:10:14;;;;;;;6.05;3.53;;;;;;;11.75;100.00;102154.59;5024638;28;20136;-58
2022/06/28 05:12:40;;;;;;;6.32;3.47;;;;;;;11.81;100.00;102164.38;5026745;28;20029;-57
2022/06/28 05:15:06;;;;;;;7.38;3.55;;;;;;;11.91;100.00;102165.72;5026546;28;20033;-57
2022/06/28 05:17:31;;;;;;;8.32;3.50;;;;;;;11.98;100.00;102166.06;5026144;28;20029;-58
2022/06/28 05:19:57;;;;;;;4.80;3.22;;;;;;;12.07;100.00;102167.34;5026834;28;20108;-57
2022/06/28 05:22:22;;;;;;;8.52;3.35;;;;;;;12.15;100.00;102160.81;5025771;28;20033;-58
2022/06/28 05:24:48;;;;;;;7.95;2.92;;;;;;;12.22;100.00;102157.69;5027195;28;20026;-58
2022/06/28 05:27:13;;;;;;;5.70;3.50;;;;;;;12.32;100.00;102158.13;5027081;28;20030;-57
2022/06/28 05:29:38;;;;;;;9.68;3.03;;;;;;;12.42;100.00;102149.03;5027169;28;20018;-57
2022/06/28 05:32:04;;;;;;;8.93;3.08;;;;;;;12.51;100.00;102143.34;5025539;28;20032;-58
2022/06/28 05:34:29;;;;;;;8.48;3.03;;;;;;;12.58;100.00;102150.59;5026890;28;20322;-57
2022/06/28 05:36:55;;;;;;;8.50;3.08;;;;;;;12.63;100.00;102154.28;5026357;28;20096;-58
2022/06/28 05:39:21;;;;;;;5.47;2.90;;;;;;;12.71;100.00;102149.44;5026854;28;20025;-58
2022/06/28 05:41:46;;;;;;;7.65;3.10;;;;;;;12.84;100.00;102148.28;5026750;28;20056;-58
2022/06/28 05:44:13;;;;;;;8.88;3.03;;;;;;;12.91;100.00;102139.91;5026474;28;20032;-57
2022/06/28 05:46:41;;;;;;;7.93;2.45;;;;;;;13.02;100.00;102142.09;5024504;28;20499;-57
2022/06/28 05:49:10;;;;;;;9.95;2.72;;;;;;;13.12;100.00;102136.44;5026298;28;20115;-57
2022/06/28 05:51:36;;;;;;;9.88;2.97;;;;;;;13.19;100.00;102141.09;5026299;28;20052;-58
2022/06/28 05:54:01;;;;;;;6.47;2.30;;;;;;;13.31;100.00;102137.22;5025923;28;20149;-56
2022/06/28 05:56:27;;;;;;;7.85;2.20;;;;;;;13.39;100.00;102130.59;5026686;28;20063;-56
2022/06/28 05:58:53;;;;;;;6.22;2.40;;;;;;;13.47;100.00;102124.81;5028612;28;20025;-56
2022/06/28 06:01:19;;;;;;;4.93;1.73;;;;;;;13.57;100.00;102127.91;5030022;28;20047;-58
2022/06/28 06:03:44;;;;;;;6.18;2.25;;;;;;;13.71;100.00;102131.88;5030207;28;20025;-58
2022/06/28 06:06:09;;;;;;;6.38;2.28;;;;;;;13.80;100.00;102130.53;5029865;28;20053;-59
2022/06/28 06:08:35;;;;;;;8.30;2.78;;;;;;;13.92;100.00;102134.44;5029443;28;20035;-57
2022/06/28 06:11:02;;;;;;;5.78;2.40;;;;;;;14.00;100.00;102134.72;5030121;28;20037;-59
2022/06/28 06:13:28;;;;;;;6.55;2.42;;;;;;;14.08;100.00;102133.31;5029528;28;20070;-58
2022/06/28 06:15:53;;;;;;;8.02;2.78;;;;;;;14.23;100.00;102145.16;5030166;28;20041;-58
2022/06/28 06:18:19;;;;;;;7.05;2.20;;;;;;;14.37;100.00;102143.94;5030009;28;20025;-58
2022/06/28 06:20:44;;;;;;;6.35;1.92;;;;;;;14.48;100.00;102144.31;5030018;28;20029;-57
2022/06/28 06:23:09;;;;;;;10.43;2.22;;;;;;;14.62;100.00;102144.84;5030153;28;20030;-58
2022/06/28 06:25:35;;;;;;;7.10;2.72;;;;;;;14.71;100.00;102141.69;5029225;28;20562;-57
2022/06/28 06:28:00;;;;;;;3.97;1.85;;;;;;;14.82;99.97;102147.28;5028557;28;20359;-58
2022/06/28 06:30:25;;;;;;;6.72;2.20;;;;;;;14.97;99.96;102148.66;5028787;28;20037;-57
2022/06/28 06:32:51;;;;;;;7.80;2.20;;;;;;;15.08;97.38;102152.53;5028885;28;20307;-58
2022/06/28 06:35:16;;;;;;;10.43;3.13;;;;;;;15.16;94.60;102154.53;5028601;28;20032;-57
2022/06/28 06:37:41;;;;;;;8.27;2.78;;;;;;;15.29;95.85;102148.88;5029083;28;20034;-58
2022/06/28 06:40:07;;;;;;;6.53;2.33;;;;;;;15.40;92.56;102153.59;5025682;28;20080;-59
2022/06/28 06:42:32;;;;;;;4.25;1.77;;;;;;;15.54;93.64;102152.28;5019792;28;20033;-57
2022/06/28 06:44:58;;;;;;;6.03;1.75;;;;;;;15.63;94.93;102154.31;5029958;28;20036;-59
2022/06/28 06:47:24;;;;;;;5.15;2.08;;;;;;;15.76;93.67;102150.34;5030088;28;20560;-56
2022/06/28 06:49:49;;;;;;;4.40;1.80;;;;;;;15.91;91.71;102156.91;5030270;28;20063;-59
2022/06/28 06:52:14;;;;;;;4.95;1.73;;;;;;;16.04;89.34;102153.88;5029963;28;20404;-57
2022/06/28 06:54:40;;;;;;;7.22;1.90;;;;;;;16.19;88.29;102155.16;5029006;28;20056;-57
2022/06/28 06:57:05;;;;;;;7.63;2.08;;;;;;;16.22;87.32;102160.47;5029689;28;20021;-58
2022/06/28 06:59:30;;;;;;;5.40;1.67;;;;;;;16.29;87.98;102167.66;5030297;28;20025;-59
2022/06/28 07:01:56;;;;;;;8.38;2.17;;;;;;;16.40;86.62;102169.69;5029957;28;20030;-58
2022/06/28 07:04:21;;;;;;;8.18;2.00;;;;;;;16.46;88.46;102159.41;5028417;28;20389;-58
2022/06/28 07:06:47;;;;;;;7.28;1.80;;;;;;;16.50;87.79;102170.84;5017313;28;20358;-58
2022/06/28 07:09:12;;;;;;;6.68;2.70;;;;;;;16.52;85.41;102172.66;5030119;28;20516;-59
2022/06/28 07:11:38;;;;;;;7.00;1.77;;;;;;;16.53;84.25;102170.94;5028648;28;20477;-58
2022/06/28 07:14:03;;;;;;;8.90;2.25;;;;;;;16.61;86.04;102171.16;5029594;28;20029;-58
2022/06/28 07:16:29;;;;;;;8.43;2.13;;;;;;;16.77;87.52;102172.47;5029143;28;20374;-59
2022/06/28 07:18:54;;;;;;;4.72;1.60;;;;;;;16.71;79.88;102170.59;5029441;28;20037;-58
2022/06/28 07:21:20;;;;;;;7.57;2.08;;;;;;;16.68;74.90;102160.00;5029051;28;20521;-58
2022/06/28 07:23:45;;;;;;;6.45;1.80;;;;;;;16.86;80.46;102163.97;5029386;28;20025;-57
2022/06/28 07:26:11;;;;;;;5.13;1.92;;;;;;;17.02;79.85;102166.16;5029211;28;20029;-59
2022/06/28 07:28:36;;;;;;;4.40;1.77;;;;;;;17.16;78.76;102158.69;5028809;28;20025;-57
2022/06/28 07:31:02;;;;;;;5.75;1.77;;;;;;;17.39;78.54;102170.59;5028409;28;20054;-59
2022/06/28 07:33:27;;;;;;;7.13;1.88;;;;;;;17.45;73.82;102160.25;5029293;28;20070;-58
2022/06/28 07:35:53;;;;;;;8.23;2.10;;;;;;;17.62;78.90;102158.06;5028924;28;20068;-59
2022/06/28 07:38:18;;;;;;;7.45;2.00;;;;;;;17.74;80.38;102167.94;5014486;28;20036;-58
2022/06/28 07:40:44;;;;;;;7.35;1.90;;;;;;;17.91;81.52;102167.44;5028755;28;20018;-57
2022/06/28 07:43:09;;;;;;;5.88;1.90;;;;;;;17.95;72.29;102165.78;5028871;28;20053;-59
2022/06/28 07:45:36;;;;;;;3.70;1.20;;;;;;;18.16;74.32;102156.63;5028720;28;20018;-58
2022/06/28 07:48:03;;;;;;;5.88;1.88;;;;;;;18.35;72.35;102157.88;5028925;28;20481;-58
2022/06/28 07:53:12;;;;;;;5.47;1.58;;;;;;;18.36;70.92;102167.53;5028854;28;20136;-59
2022/06/28 07:55:37;;;;;;;7.10;1.80;;;;;;;18.39;70.25;102157.09;5028414;28;20108;-59
2022/06/28 07:58:02;;;;;;;5.47;1.75;;;;;;;18.35;67.61;102163.13;5028465;28;20018;-60
2022/06/28 08:00:28;;;;;;;6.88;1.40;;;;;;;18.54;72.60;102161.78;5028764;28;20036;-59
2022/06/28 08:02:53;;;;;;;8.10;1.58;;;;;;;18.60;67.09;102156.63;5028436;28;20025;-59
2022/06/28 08:05:18;;;;;;;4.47;1.55;;;;;;;18.58;66.11;102157.47;5028846;28;20182;-59
2022/06/28 08:07:44;;;;;;;4.07;1.60;;;;;;;18.57;64.55;102158.31;5028642;28;20112;-60
2022/06/28 08:10:10;;;;;;;4.18;1.10;;;;;;;18.75;65.25;102151.66;5026994;28;20393;-60
2022/06/28 08:12:37;;;;;;;3.45;1.00;;;;;;;18.68;61.13;102153.28;5027734;28;20021;-59
2022/06/28 08:15:03;;;;;;;3.72;1.27;;;;;;;18.74;61.12;102153.41;5028491;28;20532;-59
2022/06/28 08:17:29;;;;;;;4.28;1.30;;;;;;;18.84;59.58;102146.56;5028448;28;20029;-59
2022/06/28 08:19:54;;;;;;;4.68;1.10;;;;;;;19.12;60.95;102144.47;5028477;28;20028;-59
2022/06/28 08:22:19;;;;;;;5.30;1.05;;;;;;;19.41;60.73;102145.81;5027132;28;20019;-59
2022/06/28 08:24:45;;;;;;;2.08;0.60;;;;;;;19.56;57.14;102142.53;5028182;28;20053;-60
2022/06/28 08:27:10;;;;;;;5.93;0.85;;;;;;;19.86;59.35;102141.19;5028318;28;20140;-60
2022/06/28 08:29:35;;;;;;;2.72;0.93;;;;;;;19.71;55.81;102134.00;5028186;28;20029;-59
2022/06/28 08:32:02;;;;;;;2.47;0.95;;;;;;;20.02;57.18;102136.16;5028153;28;20017;-59
2022/06/28 08:34:28;;;;;;;4.85;1.05;;;;;;;20.22;56.07;102135.56;5028043;28;20534;-59
2022/06/28 08:36:54;;;;;;;7.20;1.10;;;;;;;20.32;53.37;102124.28;5028288;28;20128;-59
2022/06/28 08:39:19;;;;;;;4.22;1.00;;;;;;;20.50;54.20;102125.34;5027995;28;20033;-60
2022/06/28 08:41:46;;;;;;;3.65;1.20;;;;;;;20.70;54.18;102120.28;5028619;28;20149;-60
2022/06/28 08:44:13;;;;;;;4.07;0.95;;;;;;;20.92;56.28;102123.09;5028119;28;20032;-60
2022/06/28 08:46:39;;;;;;;3.08;0.70;;;;;;;21.08;54.80;102123.28;5027800;28;20033;-60
2022/06/28 08:49:23;;;;;;;3.95;0.65;;;;;;;21.23;52.40;102117.22;5028249;28;20487;-60
2022/06/28 08:51:50;;;;;;;1.92;0.63;;;;;;;21.44;52.57;102115.63;5028272;28;20431;-60
2022/06/28 08:54:19;;;;;;;2.47;0.65;;;;;;;21.57;51.93;102106.03;5028045;28;20120;-59
2022/06/28 08:56:44;;;;;;;2.45;0.90;;;;;;;21.59;49.38;102112.19;5027030;28;20390;-59
2022/06/28 08:59:11;;;;;;;2.63;0.70;;;;;;;21.57;50.98;102111.28;5027763;28;20025;-59
2022/06/28 09:01:36;;;;;;;1.55;0.60;;;;;;;21.67;51.37;102109.63;5028390;28;20123;-59
2022/06/28 09:04:02;;;;;;;1.55;0.60;;;;;;;21.82;51.41;102116.78;5027851;28;20025;-59
2022/06/28 09:06:28;;;;;;;1.38;0.55;;;;;;;21.94;53.92;102108.03;5027812;28;20045;-59
2022/06/28 09:08:53;;;;;;;1.48;0.40;;;;;;;22.11;52.58;102112.50;5027767;28;20059;-60
2022/06/28 09:11:18;;;;;;;2.30;0.70;;;;;;;22.13;51.40;102105.44;5027410;28;20024;-60
2022/06/28 09:13:44;;;;;;;1.63;0.70;;;;;;;22.29;52.09;102107.25;5027809;28;20025;-60
2022/06/28 09:16:09;;;;;;;2.85;0.57;;;;;;;22.18;50.24;102104.56;5027592;28;20042;-60
2022/06/28 09:18:37;;;;;;;3.60;0.70;;;;;;;22.23;50.24;102101.97;5027242;28;20083;-60
2022/06/28 09:21:06;;;;;;;1.90;0.70;;;;;;;22.22;48.86;102100.19;5027901;28;20029;-60
2022/06/28 09:23:34;;;;;;;2.25;0.70;;;;;;;21.86;48.57;102096.56;5027769;28;20099;-60
2022/06/28 09:26:11;;;;;;;3.40;0.80;;;;;;;22.15;50.86;102095.78;5027799;28;20123;-59
2022/06/28 09:28:43;;;;;;;4.32;0.70;;;;;;;22.12;50.08;102093.13;5026061;28;20108;-60
2022/06/28 09:31:18;;;;;;;4.30;0.95;;;;;;;22.12;50.93;102087.84;5027352;28;20428;-60
2022/06/28 09:33:46;;;;;;;4.43;1.15;;;;;;;22.27;48.63;102087.88;5029346;28;20109;-60
2022/06/28 09:36:18;;;;;;;4.18;0.77;;;;;;;22.46;51.17;102087.94;5031885;28;20214;-60
2022/06/28 09:38:44;;;;;;;2.42;0.50;;;;;;;22.66;51.60;102085.38;5031128;28;20014;-60
2022/06/28 09:41:22;;;;;;;3.83;0.70;;;;;;;22.62;48.37;102083.59;5031489;28;20539;-60
2022/06/28 09:44:00;;;;;;;2.92;0.93;;;;;;;22.57;49.90;102084.44;5031309;28;20024;-59
2022/06/28 09:46:27;;;;;;;3.08;0.90;;;;;;;22.74;50.03;102077.44;5030114;28;20071;-59
2022/06/28 09:48:58;;;;;;;3.80;0.88;;;;;;;22.82;50.81;102071.25;5031268;28;20040;-59
2022/06/28 09:51:24;;;;;;;2.05;0.93;;;;;;;23.01;50.88;102070.38;5031027;28;20477;-60
2022/06/28 09:54:04;;;;;;;2.80;0.70;;;;;;;22.79;47.70;102065.09;5030717;28;20042;-60
2022/06/28 09:56:34;;;;;;;3.70;1.30;;;;;;;22.88;50.29;102061.56;5030937;28;20030;-60
2022/06/28 09:59:00;;;;;;;1.95;0.70;;;;;;;22.66;48.57;102058.06;5031079;28;20018;-60
2022/06/28 10:01:25;;;;;;;2.33;0.77;;;;;;;22.98;52.32;102056.28;5031120;28;20083;-59
2022/06/28 10:03:52;;;;;;;2.65;0.73;;;;;;;23.13;49.66;102058.03;5031095;28;20092;-60
2022/06/28 10:06:19;;;;;;;6.03;0.90;;;;;;;23.36;51.24;102062.38;5030201;28;20496;-59
2022/06/28 10:08:46;;;;;;;4.97;0.80;;;;;;;23.47;49.85;102058.00;5030936;28;20033;-60
2022/06/28 10:11:12;;;;;;;2.20;0.82;;;;;;;23.65;50.70;102050.88;5030758;28;20100;-59
2022/06/28 10:16:48;;;;;;;3.40;0.90;;;;;;;23.58;49.73;102060.59;5030536;28;20044;-60
2022/06/28 10:19:17;;;;;;;1.83;0.80;;;;;;;23.67;48.49;102054.41;5031255;28;20484;-59
2022/06/28 10:21:51;;;;;;;5.72;1.05;;;;;;;23.83;46.75;102054.31;5030914;28;20028;-60
2022/06/28 10:24:18;;;;;;;4.60;1.10;;;;;;;23.81;48.95;102056.97;5030692;28;20029;-59
2022/06/28 10:26:45;;;;;;;2.75;1.00;;;;;;;23.93;49.18;102055.16;5029792;28;20096;-60
2022/06/28 10:29:13;;;;;;;6.18;1.17;;;;;;;23.96;49.18;102045.41;5030784;28;20508;-60
2022/06/28 10:31:43;;;;;;;2.15;0.68;;;;;;;23.93;49.14;102042.81;5030540;28;20350;-59
2022/06/28 10:34:12;;;;;;;2.60;0.80;;;;;;;23.81;47.20;102033.16;5030441;28;20463;-60
2022/06/28 10:36:49;;;;;;;1.67;0.60;;;;;;;23.93;51.31;102034.88;5029771;28;20195;-60
2022/06/28 10:39:23;;;;;;;3.05;0.70;;;;;;;24.12;50.95;102018.88;5030540;28;20033;-60
2022/06/28 10:41:52;;;;;;;6.15;1.15;;;;;;;24.28;50.93;102018.81;5030055;28;20060;-59
2022/06/28 10:44:20;;;;;;;2.72;0.82;;;;;;;24.45;52.43;102016.91;5030112;28;20025;-59
2022/06/28 10:47:00;;;;;;;2.55;0.75;;;;;;;24.59;50.77;102008.84;5029300;28;20350;-60
2022/06/28 10:49:26;;;;;;;2.75;0.70;;;;;;;24.50;48.39;102016.00;5029962;28;20473;-59
2022/06/28 10:52:10;;;;;;;1.98;0.88;;;;;;;24.39;46.79;102011.66;5029888;28;20064;-60
2022/06/28 10:54:38;;;;;;;2.15;0.80;;;;;;;24.45;47.56;102011.59;5030076;28;20056;-58
2022/06/28 10:57:27;;;;;;;4.60;1.10;;;;;;;24.31;47.59;101994.94;5030202;28;20034;-60
2022/06/28 10:59:56;;;;;;;3.97;0.73;;;;;;;24.11;46.56;101991.53;5029738;28;20188;-59
2022/06/28 11:02:22;;;;;;;2.90;0.60;;;;;;;23.77;45.48;101998.78;5029877;28;20052;-60
2022/06/28 11:05:05;;;;;;;1.65;0.70;;;;;;;23.73;48.12;102001.44;5029587;28;20026;-59
2022/06/28 11:07:34;;;;;;;2.78;0.60;;;;;;;23.76;45.80;102000.56;5029365;28;20043;-59
2022/06/28 11:09:59;;;;;;;2.17;0.82;;;;;;;23.71;48.37;101997.94;5029387;28;20060;-59
2022/06/28 11:12:28;;;;;;;1.67;0.90;;;;;;;24.05;48.98;101990.69;5028480;28;20447;-59
2022/06/28 11:15:02;;;;;;;3.28;0.80;;;;;;;23.81;45.40;101984.66;5029093;28;20558;-59
2022/06/28 11:17:29;;;;;;;2.35;0.88;;;;;;;23.35;46.60;101983.97;5029232;28;20064;-60
2022/06/28 11:20:00;;;;;;;3.22;1.00;;;;;;;23.37;47.02;101976.88;5029035;28;20413;-60
2022/06/28 11:22:30;;;;;;;1.00;0.60;;;;;;;23.72;50.37;101982.94;5029501;28;20029;-59
2022/06/28 11:24:58;;;;;;;4.40;0.90;;;;;;;23.80;46.38;101990.84;5029340;28;20109;-59
2022/06/28 11:27:24;;;;;;;2.00;0.77;;;;;;;23.68;47.77;101982.09;5029437;28;20059;-59
2022/06/28 11:30:08;;;;;;;2.97;0.80;;;;;;;23.94;48.84;101972.25;5029629;28;20045;-59
2022/06/28 11:32:36;;;;;;;2.90;0.77;;;;;;;23.86;45.73;101964.34;5029511;28;20029;-59